Time;durP1;ratioP1;P1;durP2;ratioP2;P2;SDS_P1;SDS_P2;PMS_P1;PMS_P2;Temp;Humidity;BMP_temperature;BMP_pressure;BME280_temperature;BME280_humidity;BME280_pressure;Samples;Min_cycle;Max_cycle;Signal;HPM_P1;HPM_P2
2020/12/31 00:01:08;;;;;;;13.18;7.72;;;;;;;8.18;83.08;98973.47;1772120;80;21598;-58
2020/12/31 00:03:35;;;;;;;21.17;10.45;;;;;;;8.15;83.24;98982.69;1721807;80;21133;-58
2020/12/31 00:06:03;;;;;;;14.58;7.45;;;;;;;8.10;83.48;98975.91;1785374;80;21921;-58
2020/12/31 00:08:31;;;;;;;14.65;8.00;;;;;;;8.19;83.29;98982.38;1770760;80;21565;-58
2020/12/31 00:10:59;;;;;;;14.98;7.97;;;;;;;8.18;83.49;98978.89;1785034;80;21502;-57
2020/12/31 00:13:27;;;;;;;16.97;7.28;;;;;;;8.13;83.81;98974.00;1762622;80;21141;-57
2020/12/31 00:15:56;;;;;;;16.82;7.62;;;;;;;8.14;84.17;98979.70;1759329;80;21370;-58
2020/12/31 00:18:25;;;;;;;13.48;7.08;;;;;;;8.22;83.93;98981.29;1742147;82;21311;-57
2020/12/31 00:20:53;;;;;;;15.90;7.55;;;;;;;8.17;84.22;98981.86;1785937;80;21164;-58
2020/12/31 00:23:21;;;;;;;17.20;6.40;;;;;;;8.17;84.49;98979.97;1783956;80;21647;-58
2020/12/31 00:25:53;;;;;;;17.10;7.70;;;;;;;8.29;84.16;98985.92;1786035;80;21168;-58
2020/12/31 00:28:21;;;;;;;21.37;7.67;;;;;;;8.26;84.28;98981.02;1767060;80;21180;-57
2020/12/31 00:30:50;;;;;;;12.88;6.25;;;;;;;8.20;84.50;98981.30;1718890;83;21635;-58
2020/12/31 00:33:18;;;;;;;13.60;6.55;;;;;;;8.26;84.42;98974.77;1760427;80;21593;-58
2020/12/31 00:35:56;;;;;;;16.07;7.37;;;;;;;8.30;84.29;98975.89;1784768;80;21196;-58
2020/12/31 00:38:23;;;;;;;;;;;;;;;8.26;84.50;98978.30;1779587;80;21604;-58
2020/12/31 00:40:54;;;;;;;17.50;7.08;;;;;;;8.29;84.53;98982.42;1755156;82;20272;-58
2020/12/31 00:43:22;;;;;;;13.75;7.12;;;;;;;8.34;84.39;98980.49;1702192;83;21526;-58
2020/12/31 00:45:50;;;;;;;16.55;7.60;;;;;;;8.30;84.54;98979.95;1785297;80;21206;-58
2020/12/31 00:48:18;;;;;;;17.32;7.08;;;;;;;8.27;84.71;98975.88;1756011;80;21125;-58
2020/12/31 00:50:46;;;;;;;15.95;7.97;;;;;;;8.36;84.50;98975.59;1725477;82;21612;-58
2020/12/31 00:53:14;;;;;;;22.37;7.50;;;;;;;8.38;84.39;98976.15;1755848;80;21615;-58
2020/12/31 00:55:42;;;;;;;16.27;7.25;;;;;;;8.31;84.63;98981.59;1770216;80;21174;-57
2020/12/31 00:58:11;;;;;;;17.82;7.87;;;;;;;8.31;84.73;98971.56;1716580;82;21181;-58
2020/12/31 01:00:39;;;;;;;17.90;7.90;;;;;;;8.37;84.47;98977.23;1757435;80;21287;-58
2020/12/31 01:03:09;;;;;;;18.70;7.95;;;;;;;8.30;84.74;98976.70;1759041;80;21288;-58
2020/12/31 01:05:37;;;;;;;17.12;7.58;;;;;;;8.32;84.72;98975.91;1764401;80;21298;-57
2020/12/31 01:08:05;;;;;;;21.07;8.70;;;;;;;8.40;84.47;98977.21;1776785;80;21671;-57
2020/12/31 01:10:33;;;;;;;19.23;8.55;;;;;;;8.33;84.71;98975.33;1785959;80;21181;-58
2020/12/31 01:13:00;;;;;;;18.92;8.08;;;;;;;8.33;84.71;98977.50;1778220;80;21145;-56
2020/12/31 01:15:28;;;;;;;18.60;8.10;;;;;;;8.41;84.43;98972.06;1785209;80;21109;-57
2020/12/31 01:17:58;;;;;;;19.87;9.18;;;;;;;8.41;84.47;98978.30;1774637;80;21191;-58
2020/12/31 01:20:26;;;;;;;22.45;9.88;;;;;;;8.34;84.68;98979.67;1754865;80;21185;-57
2020/12/31 01:22:54;;;;;;;19.65;10.05;;;;;;;8.36;84.61;98983.73;1709622;83;21193;-58
2020/12/31 01:25:22;;;;;;;21.05;11.05;;;;;;;8.43;84.29;98982.89;1767769;80;21125;-56
2020/12/31 01:27:50;;;;;;;25.65;12.07;;;;;;;8.35;84.53;98979.41;1776512;80;21165;-56
2020/12/31 01:30:18;;;;;;;23.62;11.15;;;;;;;8.36;84.56;98976.16;1775749;80;21625;-56
2020/12/31 01:32:46;;;;;;;19.25;10.05;;;;;;;8.38;84.49;98977.50;1760261;80;21145;-56
2020/12/31 01:35:14;;;;;;;21.62;10.05;;;;;;;8.31;84.72;98977.52;1770896;80;21584;-56
2020/12/31 01:37:43;;;;;;;24.43;11.38;;;;;;;8.33;84.70;98973.98;1777377;80;21224;-56
2020/12/31 01:40:11;;;;;;;22.22;11.28;;;;;;;8.37;84.43;98972.34;1774275;80;21149;-56
2020/12/31 01:42:41;;;;;;;18.12;10.50;;;;;;;8.32;84.60;98966.41;1739607;82;21150;-56
2020/12/31 01:45:11;;;;;;;18.57;10.28;;;;;;;8.34;84.55;98967.47;1775525;81;21189;-57
2020/12/31 01:47:38;;;;;;;20.97;10.63;;;;;;;8.43;84.21;98964.48;1775767;81;21137;-56
2020/12/31 01:50:06;;;;;;;25.95;10.55;;;;;;;8.34;84.40;98962.87;1777731;81;21684;-56
2020/12/31 01:52:34;;;;;;;21.27;9.83;;;;;;;8.32;84.54;98967.77;1769881;80;21097;-56
2020/12/31 01:55:02;;;;;;;19.32;9.88;;;;;;;8.42;84.11;98974.52;1775526;81;21611;-56
2020/12/31 01:57:30;;;;;;;19.02;9.53;;;;;;;8.35;84.25;98967.21;1772688;80;21592;-56
2020/12/31 01:59:58;;;;;;;18.60;8.90;;;;;;;8.28;84.42;98970.75;1758941;81;21584;-56
2020/12/31 02:02:26;;;;;;;18.00;9.58;;;;;;;8.34;84.22;98968.83;1733622;82;21150;-56
2020/12/31 02:04:54;;;;;;;19.07;10.00;;;;;;;8.34;84.16;98971.55;1749157;80;21230;-57
2020/12/31 02:07:22;;;;;;;18.40;8.83;;;;;;;8.27;84.33;98972.34;1748234;81;21141;-57
2020/12/31 02:09:50;;;;;;;18.10;9.03;;;;;;;8.32;84.18;98972.37;1754401;81;21517;-55
2020/12/31 02:12:17;;;;;;;22.13;10.38;;;;;;;8.33;84.08;98960.42;1734457;82;21153;-56
2020/12/31 02:14:51;;;;;;;19.62;9.68;;;;;;;8.27;84.19;98959.60;1749663;81;21175;-56
2020/12/31 02:17:19;;;;;;;16.62;8.93;;;;;;;8.32;83.99;98960.98;1768884;81;21137;-57
2020/12/31 02:19:46;;;;;;;19.95;9.28;;;;;;;8.34;83.85;98956.09;1758403;80;21149;-57
2020/12/31 02:22:15;;;;;;;18.62;8.90;;;;;;;8.26;84.10;98953.09;1752363;80;21625;-57
2020/12/31 02:24:43;;;;;;;19.75;9.93;;;;;;;8.29;84.07;98952.59;1750466;81;21149;-58
2020/12/31 02:27:11;;;;;;;15.88;9.65;;;;;;;8.35;83.85;98956.36;1749192;81;21291;-57
2020/12/31 02:29:39;;;;;;;17.30;9.05;;;;;;;8.28;84.05;98950.42;1774333;80;21622;-57
2020/12/31 02:32:08;;;;;;;19.42;9.33;;;;;;;8.25;84.19;98956.37;1769236;81;21196;-57
2020/12/31 02:34:36;;;;;;;18.10;9.60;;;;;;;8.34;83.89;98952.56;1747505;81;21140;-57
2020/12/31 02:37:03;;;;;;;20.35;11.55;;;;;;;8.33;83.94;98949.03;1748968;81;21144;-57
2020/12/31 02:39:31;;;;;;;19.23;9.75;;;;;;;8.25;84.14;98949.59;1768942;81;21130;-57
2020/12/31 02:41:59;;;;;;;18.75;9.13;;;;;;;8.25;84.26;98944.16;1776815;81;21589;-56
2020/12/31 02:44:27;;;;;;;21.95;9.10;;;;;;;8.33;84.07;98952.28;1764435;80;21556;-57
2020/12/31 02:46:55;;;;;;;16.80;9.88;;;;;;;8.25;84.29;98945.52;1767910;81;21143;-57
2020/12/31 02:49:23;;;;;;;18.32;8.80;;;;;;;8.23;84.40;98947.68;1755608;81;21205;-57
2020/12/31 02:51:51;;;;;;;19.35;8.03;;;;;;;8.34;84.10;98941.17;1747262;81;21193;-57
2020/12/31 02:54:18;;;;;;;16.00;9.38;;;;;;;8.32;84.18;98936.58;1752394;80;21157;-57
2020/12/31 02:56:46;;;;;;;16.17;7.87;;;;;;;8.24;84.52;98935.75;1747584;81;21169;-57
2020/12/31 02:59:14;;;;;;;15.83;8.03;;;;;;;8.28;84.56;98940.93;1777470;81;21208;-57
2020/12/31 03:01:42;;;;;;;13.40;7.97;;;;;;;8.31;84.46;98936.30;1765484;81;21141;-57
2020/12/31 03:04:10;;;;;;;17.77;7.83;;;;;;;8.26;84.62;98927.33;1755228;80;21196;-57
2020/12/31 03:06:38;;;;;;;14.75;7.40;;;;;;;8.20;84.86;98926.55;1724690;83;21170;-57
2020/12/31 03:09:06;;;;;;;15.32;8.00;;;;;;;8.28;84.76;98925.17;1723352;82;21643;-57
2020/12/31 03:11:33;;;;;;;17.02;8.95;;;;;;;8.27;84.88;98926.25;1747278;82;21171;-57
2020/12/31 03:14:01;;;;;;;15.72;8.30;;;;;;;8.19;85.22;98930.88;1762190;81;21149;-57
2020/12/31 03:16:29;;;;;;;18.07;8.85;;;;;;;8.18;85.51;98928.73;1775655;81;21610;-57
2020/12/31 03:18:57;;;;;;;14.33;8.70;;;;;;;8.22;85.39;98928.42;1771862;81;21186;-57
2020/12/31 03:21:25;;;;;;;12.33;8.00;;;;;;;8.12;85.91;98924.39;1755440;80;21609;-57
2020/12/31 03:23:53;;;;;;;12.50;7.78;;;;;;;8.10;86.11;98919.80;1737326;81;21169;-57
2020/12/31 03:26:21;;;;;;;14.80;7.87;;;;;;;8.17;85.93;98921.67;1760033;81;21161;-57
2020/12/31 03:28:49;;;;;;;13.18;8.25;;;;;;;8.13;86.14;98914.36;1750361;81;21592;-57
2020/12/31 03:31:17;;;;;;;12.25;7.80;;;;;;;8.05;86.51;98918.98;1770110;80;21568;-57
2020/12/31 03:33:44;;;;;;;15.23;7.72;;;;;;;8.10;86.37;98918.98;1771428;81;21613;-57
2020/12/31 03:36:13;;;;;;;12.68;8.35;;;;;;;8.11;86.30;98926.85;1780365;80;21254;-57
2020/12/31 03:38:40;;;;;;;13.98;8.73;;;;;;;8.03;86.46;98916.56;1774225;80;21489;-57
2020/12/31 03:41:09;;;;;;;11.05;6.53;;;;;;;8.05;86.54;98908.14;1752248;82;21168;-57
2020/12/31 03:43:37;;;;;;;12.68;7.75;;;;;;;8.02;86.58;98894.60;1751901;82;21176;-57
2020/12/31 03:46:05;;;;;;;13.72;8.13;;;;;;;7.93;86.88;98891.66;1752511;82;21554;-57
2020/12/31 03:48:33;;;;;;;12.85;7.70;;;;;;;7.90;87.10;98904.37;1752366;82;21623;-57
2020/12/31 03:51:01;;;;;;;13.05;7.67;;;;;;;7.97;86.82;98905.48;1752607;82;21580;-57
2020/12/31 03:55:09;;;;;;;10.08;6.92;;;;;;;7.92;86.95;98900.05;1763588;79;22997;-57
2020/12/31 03:57:37;;;;;;;11.30;6.75;;;;;;;7.94;86.66;98899.22;1722596;83;21705;-57
2020/12/31 04:00:05;;;;;;;11.03;7.35;;;;;;;7.92;86.58;98906.83;1722568;82;21133;-57
2020/12/31 04:02:33;;;;;;;10.18;6.28;;;;;;;7.84;86.73;98904.66;1709328;83;21157;-57
2020/12/31 04:05:01;;;;;;;9.38;6.08;;;;;;;7.86;86.61;98903.87;1710881;82;21592;-57
2020/12/31 04:07:29;;;;;;;10.25;6.85;;;;;;;7.91;86.34;98909.27;1722599;83;21193;-57
2020/12/31 04:09:57;;;;;;;9.15;6.10;;;;;;;7.84;86.51;98917.67;1722504;83;21534;-57
2020/12/31 04:12:25;;;;;;;11.85;6.75;;;;;;;7.85;86.55;98914.43;1720787;83;21556;-58
2020/12/31 04:14:53;;;;;;;10.13;6.85;;;;;;;7.89;86.30;98923.10;1722446;82;21169;-57
2020/12/31 04:17:21;;;;;;;12.78;7.00;;;;;;;7.84;86.46;98918.22;1722593;83;21185;-57
2020/12/31 04:19:50;;;;;;;9.13;6.55;;;;;;;7.85;86.47;98909.83;1722352;82;21121;-57
2020/12/31 04:22:17;;;;;;;12.93;7.10;;;;;;;7.90;86.26;98908.45;1720509;83;21510;-57
2020/12/31 04:24:46;;;;;;;11.95;7.22;;;;;;;7.83;86.52;98920.68;1708766;82;21179;-57
2020/12/31 04:27:15;;;;;;;12.43;7.10;;;;;;;7.81;86.69;98916.06;1722491;83;21157;-57
2020/12/31 04:29:43;;;;;;;12.68;7.58;;;;;;;7.85;86.54;98917.14;1703982;83;21168;-57
2020/12/31 04:32:11;;;;;;;11.50;7.12;;;;;;;7.82;86.61;98914.98;1720760;83;21145;-57
2020/12/31 04:34:39;;;;;;;11.20;7.83;;;;;;;7.78;86.84;98919.31;1722434;83;21620;-57
2020/12/31 04:37:07;;;;;;;11.93;7.70;;;;;;;7.85;86.49;98926.09;1722543;83;21153;-57
2020/12/31 04:39:35;;;;;;;12.90;8.55;;;;;;;7.81;86.55;98941.80;1722320;82;21569;-57
2020/12/31 04:42:04;;;;;;;15.08;8.03;;;;;;;7.76;86.64;98943.17;1700793;83;21149;-58
2020/12/31 04:44:31;;;;;;;13.48;8.23;;;;;;;7.82;86.37;98943.43;1690996;83;21226;-57
2020/12/31 04:47:00;;;;;;;16.15;9.18;;;;;;;7.76;86.40;98949.37;1722600;83;21153;-57
2020/12/31 04:49:31;;;;;;;13.05;8.78;;;;;;;7.74;86.53;98948.03;1695961;83;21316;-57
2020/12/31 04:51:59;;;;;;;13.15;8.55;;;;;;;7.80;86.26;98943.69;1703729;83;21130;-57
2020/12/31 04:54:26;;;;;;;14.60;9.20;;;;;;;7.78;86.15;98943.16;1722954;82;21145;-57
2020/12/31 04:56:54;;;;;;;13.78;8.75;;;;;;;7.72;86.30;98951.58;1723421;83;21181;-57
2020/12/31 04:59:22;;;;;;;12.95;8.53;;;;;;;7.74;86.13;98950.20;1710588;82;21542;-57
2020/12/31 05:01:51;;;;;;;15.55;9.88;;;;;;;7.78;85.83;98949.94;1723270;83;21153;-57
2020/12/31 05:04:19;;;;;;;12.88;8.45;;;;;;;7.75;85.93;98953.20;1723363;82;21660;-57
2020/12/31 05:06:47;;;;;;;15.95;10.53;;;;;;;7.70;86.00;98951.02;1650018;83;21156;-57
2020/12/31 05:09:16;;;;;;;16.02;9.78;;;;;;;7.78;85.72;98959.95;1722796;82;21149;-57
2020/12/31 05:11:52;;;;;;;16.42;10.72;;;;;;;7.78;85.63;98954.54;1685828;85;21184;-57
2020/12/31 05:14:33;;;;;;;20.20;12.43;;;;;;;7.68;85.83;98948.59;1722676;82;21197;-57
2020/12/31 05:17:15;;;;;;;18.17;10.93;;;;;;;7.71;85.78;98962.95;1685568;85;21172;-57
2020/12/31 05:19:43;;;;;;;19.75;12.63;;;;;;;7.73;85.53;98962.13;1720701;83;21198;-57
2020/12/31 05:22:17;;;;;;;19.10;11.10;;;;;;;7.63;85.82;98968.90;1685984;85;21144;-57
2020/12/31 05:24:47;;;;;;;19.10;10.90;;;;;;;7.68;85.67;98967.56;1685636;84;21210;-57
2020/12/31 05:27:25;;;;;;;20.65;12.93;;;;;;;7.71;85.30;98978.38;1720771;83;21468;-57
2020/12/31 05:30:07;;;;;;;18.20;12.00;;;;;;;7.64;85.50;98979.20;1682417;85;21200;-58
2020/12/31 05:32:38;;;;;;;22.42;11.83;;;;;;;7.72;85.31;98988.14;1698930;83;21161;-57
2020/12/31 05:35:18;;;;;;;19.62;12.28;;;;;;;7.74;84.94;98989.49;1704336;83;21675;-57
2020/12/31 05:37:46;;;;;;;20.80;11.53;;;;;;;7.72;85.10;98998.98;1709018;83;21176;-57
2020/12/31 05:40:13;;;;;;;19.02;11.30;;;;;;;7.78;84.89;98994.64;1709396;83;21161;-58
2020/12/31 05:42:43;;;;;;;20.05;12.35;;;;;;;7.82;84.61;98998.98;1723060;83;21232;-57
2020/12/31 05:45:16;;;;;;;20.48;12.53;;;;;;;7.74;84.66;99004.39;1720898;83;21153;-57
2020/12/31 05:47:53;;;;;;;20.17;11.53;;;;;;;7.74;84.71;99001.69;1722866;83;21612;-57
2020/12/31 05:50:24;;;;;;;19.73;12.40;;;;;;;7.84;84.37;99007.63;1722926;82;21172;-57
2020/12/31 05:52:53;;;;;;;23.73;13.65;;;;;;;7.77;84.39;99006.55;1722926;83;21172;-56
2020/12/31 05:55:23;;;;;;;20.80;12.60;;;;;;;7.74;84.60;99013.88;1710315;83;21160;-57
2020/12/31 05:57:57;;;;;;;17.42;12.35;;;;;;;7.79;84.38;99015.24;1722812;83;21153;-57
2020/12/31 06:00:28;;;;;;;20.97;12.80;;;;;;;7.79;84.24;99018.48;1704682;83;21149;-57
2020/12/31 06:02:58;;;;;;;17.98;11.65;;;;;;;7.73;84.37;99016.30;1722985;83;21138;-57
2020/12/31 06:05:27;;;;;;;19.35;11.40;;;;;;;7.77;84.12;99018.75;1713072;83;21153;-57
2020/12/31 06:07:56;;;;;;;21.23;12.60;;;;;;;7.80;83.60;99016.84;1685965;85;21596;-57
2020/12/31 06:10:30;;;;;;;23.20;10.70;;;;;;;7.78;83.61;99014.15;1722927;82;21130;-57
2020/12/31 06:13:00;;;;;;;18.62;10.93;;;;;;;7.75;83.46;99019.58;1723030;83;21161;-58
2020/12/31 06:15:39;;;;;;;19.07;11.25;;;;;;;7.84;83.02;99015.77;1710184;83;21195;-57
2020/12/31 06:18:07;;;;;;;17.75;12.30;;;;;;;7.80;82.93;99014.14;1722800;83;21157;-57
2020/12/31 06:23:13;;;;;;;19.85;13.05;;;;;;;7.86;83.04;99017.68;1802610;76;28146;-58
2020/12/31 06:25:45;;;;;;;17.32;11.90;;;;;;;8.14;82.22;99012.23;1854888;77;21173;-58
2020/12/31 06:28:23;;;;;;;18.42;10.95;;;;;;;8.27;81.24;99011.66;1841940;77;21121;-57
2020/12/31 06:30:53;;;;;;;19.52;11.55;;;;;;;8.19;81.31;99019.80;1829380;77;21136;-57
2020/12/31 06:33:42;;;;;;;16.65;10.63;;;;;;;8.21;81.35;99021.72;1827369;77;21145;-57
2020/12/31 06:36:11;;;;;;;22.37;11.20;;;;;;;8.03;81.57;99016.85;1833811;77;21516;-58
2020/12/31 06:41:40;;;;;;;17.20;11.40;;;;;;;8.00;82.03;99017.41;1805807;79;23099;-58
2020/12/31 06:44:13;;;;;;;20.25;12.28;;;;;;;7.90;82.14;99012.78;1770770;80;21165;-57
2020/12/31 06:46:49;;;;;;;23.02;12.18;;;;;;;7.73;82.76;99012.24;1704617;82;21144;-58
2020/12/31 06:49:17;;;;;;;17.55;12.33;;;;;;;7.79;82.66;99011.18;1729232;81;21193;-58
2020/12/31 06:51:46;;;;;;;20.92;11.88;;;;;;;7.80;82.61;99020.09;1738895;81;21432;-58
2020/12/31 06:54:27;;;;;;;19.00;11.63;;;;;;;7.75;82.80;99019.58;1746347;81;21603;-58
2020/12/31 06:56:55;;;;;;;18.87;12.13;;;;;;;7.77;82.76;99021.45;1752816;81;21609;-58
2020/12/31 06:59:33;;;;;;;20.05;12.53;;;;;;;7.83;82.54;99023.64;1764435;81;21211;-57
2020/12/31 07:02:13;;;;;;;19.57;12.65;;;;;;;7.78;82.62;99024.98;1771767;80;21118;-59
2020/12/31 07:04:41;;;;;;;19.07;11.80;;;;;;;7.73;82.73;99024.97;1756519;81;21193;-58
2020/12/31 07:07:26;;;;;;;19.90;11.70;;;;;;;7.80;82.45;99033.64;1745513;81;21295;-58
2020/12/31 07:09:59;;;;;;;21.65;13.35;;;;;;;7.80;82.39;99030.39;1758575;81;21153;-58
2020/12/31 07:12:41;;;;;;;23.87;13.55;;;;;;;7.69;82.85;99033.36;1766725;80;21346;-58
2020/12/31 07:15:09;;;;;;;23.75;14.45;;;;;;;7.73;82.84;99040.69;1771703;80;21118;-60
2020/12/31 07:17:40;;;;;;;24.15;14.70;;;;;;;7.78;82.71;99042.59;1774344;81;21207;-58
2020/12/31 07:20:13;;;;;;;23.85;14.00;;;;;;;7.72;82.86;99045.83;1776238;81;21175;-58
2020/12/31 07:22:41;;;;;;;22.58;12.82;;;;;;;7.69;83.02;99044.20;1755404;81;21140;-58
2020/12/31 07:25:16;;;;;;;20.90;13.20;;;;;;;7.76;82.77;99042.06;1756193;81;21197;-58
2020/12/31 07:27:48;;;;;;;22.10;14.38;;;;;;;7.81;82.67;99051.53;1762365;80;21105;-58
2020/12/31 07:30:22;;;;;;;21.00;12.50;;;;;;;7.73;82.84;99052.06;1762373;81;21202;-58
2020/12/31 07:33:01;;;;;;;22.25;12.70;;;;;;;7.79;82.67;99055.06;1759308;81;21148;-59
2020/12/31 07:35:42;;;;;;;20.27;13.50;;;;;;;7.82;82.26;99047.21;1762275;81;21141;-59
2020/12/31 07:38:16;;;;;;;23.10;13.05;;;;;;;7.78;82.42;99052.08;1763342;81;21129;-58
2020/12/31 07:40:53;;;;;;;20.48;12.18;;;;;;;7.72;82.57;99055.30;1756586;81;21158;-58
2020/12/31 07:43:23;;;;;;;19.62;12.25;;;;;;;;;;1736244;81;21160;-58
2020/12/31 07:45:59;;;;;;;20.82;13.35;;;;;;;7.83;82.15;99065.64;1740188;80;21623;-58
2020/12/31 07:48:28;;;;;;;25.32;15.93;;;;;;;7.77;82.34;99066.16;1756188;81;21127;-58
2020/12/31 07:51:01;;;;;;;33.65;19.23;;;;;;;7.84;82.21;99061.29;1748771;81;21554;-58
2020/12/31 07:53:29;;;;;;;26.60;16.07;;;;;;;7.93;82.05;99057.52;1750198;81;21718;-57
2020/12/31 07:55:57;;;;;;;26.40;15.05;;;;;;;;;;1737109;81;21539;-57
2020/12/31 07:58:29;;;;;;;18.42;13.62;;;;;;;7.81;82.47;99067.25;1760077;81;21260;-57
2020/12/31 08:01:00;;;;;;;23.60;12.80;;;;;;;7.87;82.31;99065.34;1742613;81;21218;-58
2020/12/31 08:03:27;;;;;;;21.90;13.88;;;;;;;7.90;82.11;99059.41;1740741;81;21926;-58
2020/12/31 08:06:00;;;;;;;20.40;12.78;;;;;;;7.84;82.29;99065.36;1762764;81;21647;-58
2020/12/31 08:08:28;;;;;;;19.62;12.60;;;;;;;7.79;82.35;99072.68;1748599;81;21173;-58
2020/12/31 08:10:56;;;;;;;23.57;13.50;;;;;;;7.84;82.04;99074.84;1748720;81;21288;-58
2020/12/31 08:13:24;;;;;;;18.32;11.78;;;;;;;7.92;81.71;99077.02;1746991;81;21181;-58
2020/12/31 08:15:54;;;;;;;25.68;15.03;;;;;;;7.85;81.56;99074.30;1723302;81;21150;-57
2020/12/31 08:18:23;;;;;;;20.45;12.23;;;;;;;7.81;81.70;99074.56;1708443;83;21625;-57
2020/12/31 08:20:51;;;;;;;19.70;11.73;;;;;;;7.91;81.39;99068.61;1751557;81;21578;-57
2020/12/31 08:23:30;;;;;;;18.67;13.00;;;;;;;7.94;81.21;99057.77;1736907;81;21283;-58
2020/12/31 08:25:58;;;;;;;18.90;11.30;;;;;;;7.89;81.31;99064.55;1749417;81;21218;-58
2020/12/31 08:28:26;;;;;;;17.62;11.70;;;;;;;7.93;81.09;99061.58;1753346;81;21486;-58
2020/12/31 08:30:54;;;;;;;19.40;11.65;;;;;;;7.96;80.83;99056.43;1755279;81;21150;-56
2020/12/31 08:33:24;;;;;;;14.50;9.85;;;;;;;7.87;80.79;99054.51;1762127;81;21299;-56
2020/12/31 08:35:52;;;;;;;14.07;9.55;;;;;;;7.81;80.86;99050.18;1755657;81;21150;-57
2020/12/31 08:38:23;;;;;;;17.23;10.80;;;;;;;7.86;80.82;99052.91;1759418;81;21150;-56
2020/12/31 08:40:58;;;;;;;14.38;10.13;;;;;;;7.95;80.68;99053.98;1747985;81;21647;-56
2020/12/31 08:43:35;;;;;;;15.25;10.05;;;;;;;7.64;80.65;99018.47;1742059;81;21138;-57
2020/12/31 08:46:08;;;;;;;17.07;10.30;;;;;;;7.82;80.96;99047.21;1756142;81;21210;-58
2020/12/31 08:48:36;;;;;;;16.55;10.32;;;;;;;7.93;80.78;99050.73;1733874;81;21803;-56
2020/12/31 08:51:09;;;;;;;19.55;12.45;;;;;;;7.97;80.74;99049.91;1711173;81;21169;-56
2020/12/31 08:53:59;;;;;;;15.75;11.50;;;;;;;7.93;80.98;99049.38;1733384;81;21168;-57
2020/12/31 08:56:30;;;;;;;17.67;11.43;;;;;;;8.00;80.91;99052.64;1757624;81;21166;-57
2020/12/31 08:59:11;;;;;;;16.90;11.25;;;;;;;8.01;80.75;99052.88;1760031;81;21174;-57
2020/12/31 09:01:43;;;;;;;16.73;11.20;;;;;;;7.91;81.07;99051.00;1759928;81;21165;-57
2020/12/31 09:04:19;;;;;;;15.90;10.65;;;;;;;7.84;81.40;99047.74;1760758;81;21465;-57
2020/12/31 09:06:48;;;;;;;15.78;9.63;;;;;;;7.91;81.14;99048.83;1760877;81;21110;-58
2020/12/31 09:09:26;;;;;;;15.53;9.93;;;;;;;7.92;80.89;99049.92;1732564;83;21360;-58
2020/12/31 09:12:06;;;;;;;17.05;10.18;;;;;;;7.82;81.11;99047.75;1733333;81;21592;-57
2020/12/31 09:14:37;;;;;;;17.55;10.10;;;;;;;7.90;81.05;99049.93;1751981;81;21750;-58
2020/12/31 09:17:22;;;;;;;16.80;11.70;;;;;;;7.94;80.84;99048.28;1733053;81;21172;-58
2020/12/31 09:19:54;;;;;;;12.68;9.40;;;;;;;7.90;81.06;99054.00;1732261;83;21173;-57
2020/12/31 09:22:24;;;;;;;19.02;9.90;;;;;;;7.81;81.32;99056.95;1739464;81;21113;-58
2020/12/31 09:24:53;;;;;;;17.42;10.68;;;;;;;7.92;81.09;99051.81;1749225;81;21347;-58
2020/12/31 09:27:25;;;;;;;20.25;12.30;;;;;;;7.97;81.07;99049.91;1757548;81;21182;-58
2020/12/31 09:30:00;;;;;;;19.00;12.93;;;;;;;7.91;81.34;99051.53;1762603;81;21198;-58
2020/12/31 09:32:28;;;;;;;21.82;12.30;;;;;;;7.90;81.44;99057.49;1760414;81;21154;-58
2020/12/31 09:34:58;;;;;;;20.80;13.85;;;;;;;7.97;81.39;99058.61;1762306;81;21285;-58
2020/12/31 09:37:26;;;;;;;21.33;13.55;;;;;;;7.92;81.61;99049.10;1746708;81;21594;-58
2020/12/31 09:39:54;;;;;;;24.47;13.05;;;;;;;7.84;81.90;99045.57;1742615;81;21333;-59
2020/12/31 09:42:23;;;;;;;22.00;12.80;;;;;;;7.91;81.81;99051.00;1760378;81;21568;-58
2020/12/31 09:44:51;;;;;;;20.37;12.95;;;;;;;7.97;81.65;99043.13;1749494;81;21164;-57
2020/12/31 09:47:19;;;;;;;23.30;14.68;;;;;;;7.90;81.82;99038.52;1751361;81;21579;-58
2020/12/31 09:49:46;;;;;;;18.00;12.35;;;;;;;;;;1753640;81;21142;-58
2020/12/31 09:52:14;;;;;;;29.85;17.40;;;;;;;7.93;82.08;99043.42;1762490;81;21154;-58
2020/12/31 09:54:42;;;;;;;34.25;20.57;;;;;;;7.94;82.42;99038.80;1762622;81;21166;-57
2020/12/31 09:57:10;;;;;;;34.70;19.77;;;;;;;7.85;82.95;99030.95;1758914;81;21126;-58
2020/12/31 09:59:38;;;;;;;23.25;14.73;;;;;;;7.92;82.91;99036.91;1760765;81;21205;-58
2020/12/31 10:02:06;;;;;;;25.02;16.45;;;;;;;7.99;82.84;99027.97;1756870;81;21150;-57
2020/12/31 10:04:34;;;;;;;26.87;15.65;;;;;;;7.93;83.20;99024.45;1762452;81;21589;-58
2020/12/31 10:07:01;;;;;;;24.65;14.68;;;;;;;7.88;83.42;99016.31;1758181;81;21621;-58
2020/12/31 10:09:29;;;;;;;22.85;14.80;;;;;;;7.96;83.31;99015.78;1734606;81;21233;-58
2020/12/31 10:11:57;;;;;;;22.10;14.38;;;;;;;7.97;83.14;99009.81;1753748;81;21114;-58
2020/12/31 10:14:25;;;;;;;20.17;13.62;;;;;;;7.89;83.33;99012.53;1762085;81;21165;-57
2020/12/31 10:16:52;;;;;;;20.97;12.98;;;;;;;7.91;83.19;99014.41;1761867;81;21142;-58
2020/12/31 10:19:20;;;;;;;19.15;12.70;;;;;;;7.97;82.85;99011.95;1746117;81;21178;-57
2020/12/31 10:21:48;;;;;;;18.30;12.55;;;;;;;7.90;83.10;99014.70;1762500;81;21205;-55
2020/12/31 10:24:16;;;;;;;20.65;12.50;;;;;;;7.86;83.23;99018.49;1755448;81;21221;-56
2020/12/31 10:26:45;;;;;;;23.92;13.98;;;;;;;7.98;82.96;99016.84;1747671;81;21629;-56
2020/12/31 10:29:14;;;;;;;23.50;14.83;;;;;;;7.97;82.88;99013.88;1745403;81;21205;-56
2020/12/31 10:31:42;;;;;;;24.60;15.25;;;;;;;7.86;83.26;99008.19;1752950;81;21201;-56
2020/12/31 10:34:10;;;;;;;17.87;11.50;;;;;;;7.89;83.46;99005.75;1755289;81;21636;-58
2020/12/31 10:36:38;;;;;;;22.30;12.70;;;;;;;7.95;83.11;99002.48;1752336;81;21118;-56
2020/12/31 10:39:06;;;;;;;19.30;12.73;;;;;;;7.90;83.40;99006.57;1732385;83;21221;-56
2020/12/31 10:41:34;;;;;;;19.37;12.05;;;;;;;7.90;83.45;99010.06;1740378;81;21160;-56
2020/12/31 10:44:02;;;;;;;17.90;12.23;;;;;;;8.02;83.25;99003.02;1767247;81;21126;-56
2020/12/31 10:46:30;;;;;;;20.88;12.90;;;;;;;7.96;83.45;98988.67;1753655;81;21727;-57
2020/12/31 10:48:59;;;;;;;22.95;13.88;;;;;;;7.91;83.75;98984.60;1757298;81;21242;-56
2020/12/31 10:51:27;;;;;;;20.80;13.38;;;;;;;7.99;83.69;98990.02;1758157;81;21239;-56
2020/12/31 10:53:54;;;;;;;21.90;14.68;;;;;;;8.04;83.75;98990.56;1743966;81;21280;-56
2020/12/31 10:56:22;;;;;;;19.75;12.90;;;;;;;7.97;84.11;98981.36;1743109;82;21163;-56
2020/12/31 10:58:50;;;;;;;19.35;12.23;;;;;;;8.01;84.15;98984.58;1743635;81;21144;-56
2020/12/31 11:01:18;;;;;;;20.27;12.90;;;;;;;8.10;83.99;98988.11;1762767;81;21185;-56
2020/12/31 11:03:46;;;;;;;19.25;11.93;;;;;;;8.04;84.25;98987.31;1728613;82;21161;-56
2020/12/31 11:06:27;;;;;;;17.73;11.68;;;;;;;7.98;84.60;98987.03;1726981;81;21190;-56
2020/12/31 11:08:55;;;;;;;14.85;10.23;;;;;;;8.04;84.53;98983.25;1771178;81;21165;-56
2020/12/31 11:11:26;;;;;;;15.72;10.98;;;;;;;8.04;84.51;98982.43;1770890;81;21151;-56
2020/12/31 11:13:54;;;;;;;15.30;9.95;;;;;;;7.97;84.76;98988.14;1769550;81;21309;-56
2020/12/31 11:16:22;;;;;;;18.23;9.45;;;;;;;8.03;84.66;98991.10;1745325;81;21177;-56
2020/12/31 11:18:50;;;;;;;16.30;10.18;;;;;;;8.12;84.28;98986.73;1743159;82;21175;-57
2020/12/31 11:21:21;;;;;;;17.37;11.43;;;;;;;8.10;84.35;98991.64;1761496;81;21169;-57
2020/12/31 11:23:48;;;;;;;20.25;10.82;;;;;;;8.07;84.45;98983.23;1761850;81;21102;-57
2020/12/31 11:26:21;;;;;;;21.23;12.18;;;;;;;8.17;84.26;98988.64;1773653;81;21150;-57
2020/12/31 11:28:51;;;;;;;16.23;10.25;;;;;;;8.20;84.14;98971.81;1724171;82;21154;-57
2020/12/31 11:31:25;;;;;;;13.03;8.05;;;;;;;8.13;84.24;98972.64;1691819;85;21201;-56
2020/12/31 11:33:53;;;;;;;14.20;8.98;;;;;;;8.16;84.20;98965.31;1688659;84;21602;-56
2020/12/31 11:36:21;;;;;;;16.97;10.60;;;;;;;8.19;84.06;98967.47;1692472;85;21210;-57
2020/12/31 11:38:50;;;;;;;15.13;10.18;;;;;;;8.13;84.21;98968.04;1692094;85;21162;-57
2020/12/31 11:41:18;;;;;;;16.87;9.38;;;;;;;8.11;84.40;98970.23;1693129;84;21213;-57
2020/12/31 11:43:46;;;;;;;15.98;10.13;;;;;;;8.20;84.17;98980.77;1667869;85;21158;-57
2020/12/31 11:46:14;;;;;;;18.52;10.82;;;;;;;8.23;84.17;98985.64;1713542;83;21634;-57
2020/12/31 11:48:42;;;;;;;19.62;10.05;;;;;;;8.14;84.56;98979.16;1724229;82;21154;-57
2020/12/31 11:51:11;;;;;;;15.58;10.50;;;;;;;8.15;84.62;98978.05;1723951;83;21122;-57